createdAt,value
2022-11-28T00:01:43.835Z,24.30
2022-11-28T00:04:13.217Z,23.30
2022-11-28T00:06:47.255Z,25.50
2022-11-28T00:09:17.137Z,26.00
2022-11-28T00:11:48.746Z,26.70
2022-11-28T00:14:18.820Z,26.80
2022-11-28T00:16:47.490Z,28.00
2022-11-28T00:19:15.931Z,29.40
2022-11-28T00:21:44.099Z,28.80
2022-11-28T00:24:12.288Z,28.60
2022-11-28T00:26:42.262Z,27.30
2022-11-28T00:29:11.482Z,28.70
2022-11-28T00:31:44.651Z,30.30
2022-11-28T00:34:15.198Z,25.00
2022-11-28T00:39:13.558Z,19.40
2022-11-28T00:41:41.838Z,22.70
2022-11-28T00:44:11.778Z,25.30
2022-11-28T00:46:40.341Z,25.80
2022-11-28T00:49:08.706Z,27.90
2022-11-28T00:51:36.896Z,27.70
2022-11-28T00:54:06.559Z,30.50
2022-11-28T00:56:38.138Z,25.30
2022-11-28T00:59:07.319Z,26.10
2022-11-28T01:01:41.859Z,26.20
2022-11-28T01:04:12.903Z,27.20
2022-11-28T01:06:49.793Z,28.50
2022-11-28T01:09:22.895Z,30.10
2022-11-28T01:11:53.566Z,27.50
2022-11-28T01:14:24.204Z,29.50
2022-11-28T01:16:52.547Z,33.70
2022-11-28T01:19:21.344Z,32.00
2022-11-28T01:21:49.573Z,31.00
2022-11-28T01:24:18.273Z,27.60
2022-11-28T01:26:46.496Z,28.00
2022-11-28T01:29:15.000Z,32.50
2022-11-28T01:31:43.198Z,30.60
2022-11-28T01:34:11.310Z,33.50
2022-11-28T01:36:39.461Z,29.70
2022-11-28T01:39:07.806Z,31.80
2022-11-28T01:41:35.918Z,31.90
2022-11-28T01:44:27.060Z,27.30
2022-11-28T01:46:55.388Z,31.00
2022-11-28T01:49:31.835Z,37.40
2022-11-28T01:52:13.155Z,29.70
2022-11-28T01:54:44.220Z,27.90
2022-11-28T01:57:17.550Z,31.80
2022-11-28T02:00:04.609Z,30.00
2022-11-28T02:03:09.342Z,29.20
2022-11-28T02:05:38.620Z,30.20
2022-11-28T02:08:10.199Z,32.90
2022-11-28T02:10:53.537Z,27.10
2022-11-28T02:13:39.909Z,26.70
2022-11-28T02:16:11.217Z,28.90
2022-11-28T02:19:28.694Z,28.70
2022-11-28T02:22:23.918Z,28.10
2022-11-28T02:25:12.687Z,23.40
2022-11-28T02:28:00.461Z,24.90
2022-11-28T02:30:34.251Z,29.50
2022-11-28T02:33:38.515Z,27.10
2022-11-28T02:36:36.513Z,24.70
2022-11-28T02:39:27.874Z,26.50
2022-11-28T02:42:28.908Z,25.40
2022-11-28T02:45:04.979Z,24.70
2022-11-28T02:47:36.614Z,31.70
2022-11-28T02:50:15.724Z,31.30
2022-11-28T02:52:49.176Z,27.60
2022-11-28T02:55:18.390Z,26.00
2022-11-28T02:57:52.127Z,28.60
2022-11-28T03:00:32.617Z,26.70
2022-11-28T03:03:10.033Z,24.20
2022-11-28T03:06:02.762Z,27.00
2022-11-28T03:08:46.163Z,26.00
2022-11-28T03:11:34.305Z,29.10
2022-11-28T03:14:12.561Z,21.00
2022-11-28T03:16:56.320Z,23.50
2022-11-28T03:19:45.585Z,26.30
2022-11-28T03:22:20.786Z,25.30
2022-11-28T03:25:09.285Z,29.20
2022-11-28T03:28:12.567Z,25.40
2022-11-28T03:30:53.494Z,34.50
2022-11-28T03:33:32.587Z,30.80
2022-11-28T03:36:19.875Z,28.10
2022-11-28T03:39:01.299Z,26.50
2022-11-28T03:41:55.750Z,30.30
2022-11-28T03:44:28.821Z,28.00
2022-11-28T03:47:00.740Z,32.50
2022-11-28T03:49:53.212Z,29.50
2022-11-28T03:52:28.017Z,30.60
2022-11-28T03:55:02.208Z,28.30
2022-11-28T03:57:46.301Z,28.00
2022-11-28T04:00:15.299Z,28.80
2022-11-28T04:03:04.508Z,27.60
2022-11-28T04:05:42.326Z,23.90
2022-11-28T04:08:10.481Z,23.90
2022-11-28T04:10:45.474Z,25.20
2022-11-28T04:13:22.876Z,26.80
2022-11-28T04:16:12.291Z,25.90
2022-11-28T04:18:51.261Z,24.90
2022-11-28T04:21:43.955Z,26.10
2022-11-28T04:24:18.344Z,22.00
2022-11-28T04:26:51.879Z,22.90
2022-11-28T04:29:23.664Z,22.90
2022-11-28T04:31:56.167Z,23.70
2022-11-28T04:34:26.795Z,25.10
2022-11-28T04:36:58.266Z,23.00
2022-11-28T04:39:28.952Z,23.10
2022-11-28T04:42:12.150Z,25.30
2022-11-28T04:44:58.540Z,21.80
2022-11-28T04:47:27.076Z,24.50
2022-11-28T04:49:55.442Z,22.50
2022-11-28T04:52:39.282Z,25.40
2022-11-28T04:55:20.096Z,23.00
2022-11-28T04:58:09.265Z,24.70
2022-11-28T05:00:39.187Z,22.50
2022-11-28T05:03:08.276Z,25.40
2022-11-28T05:05:50.945Z,25.10
2022-11-28T05:08:19.977Z,25.70
2022-11-28T05:10:48.503Z,22.20
2022-11-28T05:13:17.089Z,25.30
2022-11-28T05:15:45.140Z,22.00
2022-11-28T05:18:13.207Z,20.50
2022-11-28T05:20:41.641Z,19.80
2022-11-28T05:23:09.827Z,22.70
2022-11-28T05:25:40.073Z,21.80
2022-11-28T05:28:09.104Z,22.10
2022-11-28T05:30:37.107Z,20.90
2022-11-28T05:33:05.228Z,20.60
2022-11-28T05:35:33.311Z,25.50
2022-11-28T05:38:01.365Z,25.20
2022-11-28T05:40:29.426Z,28.20
2022-11-28T05:42:57.508Z,26.10
2022-11-28T05:45:25.642Z,23.60
2022-11-28T05:47:53.708Z,27.70
2022-11-28T05:50:21.798Z,22.60
2022-11-28T05:52:49.889Z,21.10
2022-11-28T05:55:17.989Z,22.30
2022-11-28T05:57:46.103Z,23.00
2022-11-28T06:00:14.707Z,27.60
2022-11-28T06:02:43.278Z,26.90
2022-11-28T06:05:35.098Z,23.30
2022-11-28T06:07:59.546Z,21.90
2022-11-28T06:10:27.610Z,22.60
2022-11-28T06:12:55.918Z,26.40
2022-11-28T06:15:24.250Z,25.10
2022-11-28T06:17:52.283Z,23.60
2022-11-28T06:20:20.288Z,27.10
2022-11-28T06:22:48.326Z,24.40
2022-11-28T06:25:16.460Z,25.20
2022-11-28T06:27:44.519Z,24.80
2022-11-28T06:30:12.899Z,25.90
2022-11-28T06:32:40.953Z,24.50
2022-11-28T06:35:09.776Z,25.20
2022-11-28T06:37:38.036Z,26.30
2022-11-28T06:40:06.708Z,25.80
2022-11-28T06:42:38.260Z,24.30
2022-11-28T06:45:07.115Z,26.50
2022-11-28T06:47:35.753Z,25.20
2022-11-28T06:50:04.255Z,25.50
2022-11-28T06:52:32.408Z,26.10
2022-11-28T06:55:00.610Z,26.80
2022-11-28T06:57:28.874Z,25.60
2022-11-28T06:59:56.934Z,26.30
2022-11-28T07:02:27.714Z,24.10
2022-11-28T07:04:55.953Z,27.10
2022-11-28T07:07:24.051Z,25.20
2022-11-28T07:09:52.348Z,25.90
2022-11-28T07:12:20.459Z,27.10
2022-11-28T07:14:48.647Z,27.10
2022-11-28T07:17:17.377Z,27.10
2022-11-28T07:19:49.249Z,24.40
2022-11-28T07:22:20.364Z,24.40
2022-11-28T07:24:48.653Z,26.10
2022-11-28T07:27:16.824Z,28.70
2022-11-28T07:29:45.172Z,25.00
2022-11-28T07:32:13.844Z,25.10
2022-11-28T07:34:44.665Z,26.80
2022-11-28T07:37:16.251Z,27.70
2022-11-28T07:39:44.743Z,25.70
2022-11-28T07:42:14.015Z,26.10
2022-11-28T07:44:44.364Z,26.70
2022-11-28T07:47:12.577Z,27.30
2022-11-28T07:49:41.002Z,25.90
2022-11-28T07:52:09.374Z,25.30
2022-11-28T07:54:37.676Z,24.40
2022-11-28T07:57:13.551Z,26.80
2022-11-28T07:59:42.326Z,24.00
2022-11-28T08:02:12.220Z,27.80
2022-11-28T08:04:45.929Z,36.20
2022-11-28T08:07:17.123Z,29.80
2022-11-28T08:09:45.950Z,27.10
2022-11-28T08:12:14.136Z,29.00
2022-11-28T08:14:42.672Z,26.80
2022-11-28T08:17:11.031Z,24.90
2022-11-28T08:19:39.112Z,23.70
2022-11-28T08:22:09.389Z,24.40
2022-11-28T08:24:37.702Z,24.70
2022-11-28T08:27:06.315Z,26.20
2022-11-28T08:29:34.659Z,24.70
2022-11-28T08:32:03.415Z,24.30
2022-11-28T08:34:31.558Z,25.10
2022-11-28T08:36:59.886Z,25.20
2022-11-28T08:39:28.326Z,22.80
2022-11-28T08:41:59.852Z,23.90
2022-11-28T08:44:30.252Z,23.50
2022-11-28T08:46:58.837Z,24.50
2022-11-28T08:49:26.952Z,22.80
2022-11-28T08:51:55.074Z,22.70
2022-11-28T08:54:23.176Z,22.80
2022-11-28T08:56:51.411Z,21.20
2022-11-28T08:59:19.669Z,22.80
2022-11-28T09:01:47.797Z,23.70
2022-11-28T09:04:16.051Z,22.40
2022-11-28T09:06:44.250Z,21.10
2022-11-28T09:09:12.723Z,21.40
2022-11-28T09:11:41.477Z,22.00
2022-11-28T09:14:09.569Z,21.50
2022-11-28T09:16:39.547Z,22.10
2022-11-28T09:19:09.391Z,20.40
2022-11-28T09:21:38.279Z,20.60
2022-11-28T09:24:07.050Z,19.30
2022-11-28T09:26:35.826Z,16.40
2022-11-28T09:29:05.472Z,17.10
2022-11-28T09:31:33.777Z,19.20
2022-11-28T09:34:04.017Z,18.40
2022-11-28T09:36:32.719Z,18.20
2022-11-28T09:39:03.994Z,19.30
2022-11-28T09:41:38.239Z,18.80
2022-11-28T09:44:22.744Z,18.60
2022-11-28T09:46:56.097Z,18.10
2022-11-28T09:49:52.662Z,17.40
2022-11-28T09:52:39.780Z,17.90
2022-11-28T09:55:36.589Z,17.80
2022-11-28T09:58:39.654Z,17.80
2022-11-28T10:01:11.261Z,17.40
2022-11-28T10:03:46.466Z,17.70
2022-11-28T10:06:51.770Z,16.00
2022-11-28T10:09:26.633Z,15.70
2022-11-28T10:12:08.437Z,16.50
2022-11-28T10:14:55.093Z,15.90
2022-11-28T10:17:23.169Z,16.50
2022-11-28T10:20:06.493Z,16.90
2022-11-28T10:22:48.683Z,14.30
2022-11-28T10:25:21.416Z,14.00
2022-11-28T10:27:50.582Z,13.90
2022-11-28T10:30:23.405Z,15.40
2022-11-28T10:33:01.342Z,13.40
2022-11-28T10:35:43.921Z,14.20
2022-11-28T10:38:16.872Z,13.70
2022-11-28T10:40:54.239Z,15.00
2022-11-28T10:43:30.396Z,14.40
2022-11-28T10:46:10.891Z,14.00
2022-11-28T10:48:52.825Z,13.00
2022-11-28T10:51:32.837Z,14.80
2022-11-28T10:54:07.066Z,12.50
2022-11-28T10:56:44.287Z,13.50
2022-11-28T10:59:51.032Z,14.60
2022-11-28T11:02:52.166Z,14.50
2022-11-28T11:05:29.083Z,13.30
2022-11-28T11:08:09.392Z,14.30
2022-11-28T11:11:20.948Z,13.30
2022-11-28T11:14:08.924Z,14.70
2022-11-28T11:16:52.671Z,14.10
2022-11-28T11:19:25.108Z,14.60
2022-11-28T11:22:21.041Z,14.60
2022-11-28T11:25:15.653Z,13.00
2022-11-28T11:27:52.709Z,12.60
2022-11-28T11:30:29.348Z,12.80
2022-11-28T11:32:59.799Z,11.30
2022-11-28T11:38:18.237Z,10.20
2022-11-28T11:40:47.040Z,10.80
2022-11-28T11:43:33.215Z,11.80
2022-11-28T11:46:13.347Z,11.60
2022-11-28T11:48:41.447Z,12.00
2022-11-28T11:51:35.227Z,12.40
2022-11-28T11:54:13.359Z,11.10
2022-11-28T11:56:45.747Z,10.40
2022-11-28T11:59:21.366Z,10.90
2022-11-28T12:01:55.580Z,9.90
2022-11-28T12:04:45.023Z,10.80
2022-11-28T12:07:43.046Z,9.50
2022-11-28T12:10:14.406Z,9.80
2022-11-28T12:12:42.868Z,10.00
2022-11-28T12:15:41.017Z,11.30
2022-11-28T12:18:21.730Z,10.80
2022-11-28T12:21:05.157Z,9.40
2022-11-28T12:23:39.337Z,9.60
2022-11-28T12:26:27.610Z,9.70
2022-11-28T12:29:23.699Z,8.70
2022-11-28T12:32:10.190Z,8.40
2022-11-28T12:34:38.281Z,7.50
2022-11-28T12:37:15.344Z,8.60
2022-11-28T12:39:47.164Z,9.10
2022-11-28T12:42:32.190Z,7.60
2022-11-28T12:45:12.607Z,7.40
2022-11-28T12:48:08.446Z,7.70
2022-11-28T12:50:44.174Z,9.40
2022-11-28T12:53:36.791Z,9.00
2022-11-28T12:56:21.182Z,7.70
2022-11-28T12:59:01.131Z,6.80
2022-11-28T13:02:02.120Z,6.10
2022-11-28T13:05:04.044Z,6.50
2022-11-28T13:07:54.307Z,6.50
2022-11-28T13:10:26.243Z,6.10
2022-11-28T13:13:03.990Z,6.50
2022-11-28T13:15:31.918Z,6.40
2022-11-28T13:18:28.788Z,6.60
2022-11-28T13:21:22.846Z,8.10
2022-11-28T13:24:36.080Z,7.10
2022-11-28T13:27:09.871Z,7.30
2022-11-28T13:30:01.695Z,8.30
2022-11-28T13:32:59.952Z,8.00
2022-11-28T13:35:29.611Z,7.70
2022-11-28T13:38:36.984Z,8.20
2022-11-28T13:41:43.176Z,7.70
2022-11-28T13:44:19.136Z,9.20
2022-11-28T13:46:47.517Z,8.60
2022-11-28T13:49:21.310Z,8.10
2022-11-28T13:52:09.702Z,6.60
2022-11-28T13:54:43.657Z,7.10
2022-11-28T13:57:32.472Z,6.70
2022-11-28T14:00:20.530Z,8.10
2022-11-28T14:02:53.249Z,9.50
2022-11-28T14:05:41.606Z,7.90
2022-11-28T14:08:30.059Z,7.00
2022-11-28T14:11:27.588Z,7.40
2022-11-28T14:14:21.236Z,7.50
2022-11-28T14:16:55.611Z,7.80
2022-11-28T14:19:53.922Z,10.40
2022-11-28T14:23:00.085Z,11.30
2022-11-28T14:25:32.507Z,10.50
2022-11-28T14:28:06.928Z,10.10
2022-11-28T14:30:40.969Z,9.80
2022-11-28T14:33:23.158Z,8.60
2022-11-28T14:35:54.014Z,8.60
2022-11-28T14:38:31.392Z,8.80
2022-11-28T14:41:06.766Z,8.70
2022-11-28T14:43:44.865Z,8.30
2022-11-28T14:46:16.329Z,8.40
2022-11-28T14:49:00.208Z,8.80
2022-11-28T14:51:44.288Z,8.30
2022-11-28T14:54:35.605Z,8.20
2022-11-28T14:57:33.114Z,10.00
2022-11-28T15:00:16.690Z,9.50
2022-11-28T15:02:56.972Z,10.90
2022-11-28T15:05:37.894Z,11.50
2022-11-28T15:08:32.906Z,12.50
2022-11-28T15:11:06.021Z,12.90
2022-11-28T15:13:49.048Z,13.50
2022-11-28T15:16:20.304Z,15.00
2022-11-28T15:18:54.147Z,24.20
2022-11-28T15:21:23.083Z,21.30
2022-11-28T15:23:53.053Z,16.20
2022-11-28T15:26:29.655Z,13.10
2022-11-28T15:29:19.949Z,10.40
2022-11-28T15:31:51.890Z,9.30
2022-11-28T15:34:32.110Z,9.40
2022-11-28T15:39:40.125Z,10.50
2022-11-28T15:42:20.871Z,9.60
2022-11-28T15:44:59.973Z,10.90
2022-11-28T15:47:29.020Z,9.40
2022-11-28T15:50:21.406Z,10.40
2022-11-28T15:52:58.224Z,11.00
2022-11-28T15:55:32.605Z,12.40
2022-11-28T15:58:19.932Z,14.20
2022-11-28T16:01:11.859Z,13.90
2022-11-28T16:03:52.481Z,12.80
2022-11-28T16:06:23.925Z,11.20
2022-11-28T16:08:53.006Z,11.90
2022-11-28T16:11:24.370Z,11.10
2022-11-28T16:13:58.909Z,10.70
2022-11-28T16:16:33.277Z,10.20
2022-11-28T16:19:06.185Z,10.80
2022-11-28T16:21:58.092Z,11.50
2022-11-28T16:27:07.876Z,8.10
2022-11-28T16:29:36.823Z,9.80
2022-11-28T16:32:26.037Z,12.00
2022-11-28T16:34:56.251Z,10.20
2022-11-28T16:37:43.682Z,10.30
2022-11-28T16:40:20.233Z,9.30
2022-11-28T16:42:56.959Z,9.60
2022-11-28T16:45:36.712Z,9.50
2022-11-28T16:48:19.327Z,8.90
2022-11-28T16:51:10.503Z,9.40
2022-11-28T16:53:49.056Z,10.10
2022-11-28T16:56:24.824Z,11.70
2022-11-28T16:59:18.250Z,13.80
2022-11-28T17:01:49.341Z,12.60
2022-11-28T17:04:22.845Z,12.80
2022-11-28T17:06:54.817Z,11.20
2022-11-28T17:09:23.852Z,11.60
2022-11-28T17:11:57.419Z,11.80
2022-11-28T17:14:25.731Z,9.70
2022-11-28T17:16:55.419Z,11.10
2022-11-28T17:19:29.797Z,12.70
2022-11-28T17:21:59.676Z,14.00
2022-11-28T17:24:34.618Z,14.50
2022-11-28T17:27:03.984Z,13.10
2022-11-28T17:29:32.176Z,15.50
2022-11-28T17:32:02.315Z,15.30
2022-11-28T17:34:33.393Z,13.60
2022-11-28T17:37:03.078Z,12.70
2022-11-28T17:39:31.656Z,10.90
2022-11-28T17:42:01.519Z,12.10
2022-11-28T17:44:37.953Z,12.00
2022-11-28T17:47:06.585Z,11.30
2022-11-28T17:49:35.723Z,14.10
2022-11-28T17:52:05.026Z,15.30
2022-11-28T17:54:35.124Z,15.90
2022-11-28T17:57:03.839Z,18.00
2022-11-28T17:59:34.520Z,17.30
2022-11-28T18:02:02.625Z,18.90
2022-11-28T18:04:34.413Z,19.40
2022-11-28T18:07:04.739Z,17.80
2022-11-28T18:09:33.205Z,14.90
2022-11-28T18:12:01.972Z,13.70
2022-11-28T18:14:35.200Z,13.80
2022-11-28T18:17:08.791Z,15.30
2022-11-28T18:22:08.776Z,14.10
2022-11-28T18:24:40.139Z,14.50
2022-11-28T18:27:09.219Z,13.90
2022-11-28T18:29:37.869Z,13.20
2022-11-28T18:32:07.383Z,15.10
2022-11-28T18:34:35.625Z,14.30
2022-11-28T18:37:05.220Z,14.20
2022-11-28T18:39:35.364Z,15.70
2022-11-28T18:42:06.996Z,15.30
2022-11-28T18:44:35.881Z,15.50
2022-11-28T18:47:08.529Z,11.70
2022-11-28T18:49:56.875Z,12.60
2022-11-28T18:52:25.496Z,12.90
2022-11-28T18:54:53.901Z,12.50
2022-11-28T18:57:30.813Z,12.10
2022-11-28T19:00:01.275Z,13.70
2022-11-28T19:02:35.011Z,12.80
2022-11-28T19:05:05.893Z,13.50
2022-11-28T19:07:34.887Z,13.30
2022-11-28T19:10:03.624Z,12.50
2022-11-28T19:12:33.079Z,13.50
2022-11-28T19:15:02.999Z,13.80
2022-11-28T19:17:35.761Z,14.40
2022-11-28T19:20:04.760Z,14.40
2022-11-28T19:22:36.388Z,12.30
2022-11-28T19:25:05.276Z,13.40
2022-11-28T19:27:33.546Z,12.40
2022-11-28T19:30:06.779Z,11.80
2022-11-28T19:32:36.446Z,12.90
2022-11-28T19:35:05.060Z,12.30
2022-11-28T19:37:33.440Z,11.70
2022-11-28T19:40:03.030Z,14.20
2022-11-28T19:42:32.634Z,13.20
2022-11-28T19:45:00.986Z,11.20
2022-11-28T19:47:29.217Z,12.30
2022-11-28T19:49:57.376Z,13.50
2022-11-28T19:52:25.551Z,12.70
2022-11-28T19:54:55.179Z,14.30
2022-11-28T19:57:24.208Z,15.20
2022-11-28T19:59:53.588Z,15.40
2022-11-28T20:02:23.516Z,15.70
2022-11-28T20:04:52.450Z,14.90
2022-11-28T20:07:21.594Z,15.50
2022-11-28T20:09:49.868Z,13.70
2022-11-28T20:12:19.692Z,12.90
2022-11-28T20:14:48.608Z,13.30
2022-11-28T20:17:17.206Z,12.20
2022-11-28T20:19:46.028Z,12.30
2022-11-28T20:22:14.427Z,13.20
2022-11-28T20:24:42.911Z,11.50
2022-11-28T20:27:11.078Z,13.10
2022-11-28T20:29:39.270Z,13.20
2022-11-28T20:32:07.636Z,13.20
2022-11-28T20:34:35.752Z,13.20
2022-11-28T20:37:03.965Z,13.40
2022-11-28T20:39:32.616Z,14.40
2022-11-28T20:42:01.566Z,12.90
2022-11-28T20:44:29.749Z,12.40
2022-11-28T20:46:58.763Z,11.90
2022-11-28T20:49:26.830Z,15.20
2022-11-28T20:51:54.996Z,15.10
2022-11-28T20:54:23.259Z,15.80
2022-11-28T20:57:19.805Z,15.90
2022-11-28T20:59:40.404Z,14.30
2022-11-28T21:02:11.683Z,14.30
2022-11-28T21:04:39.777Z,12.80
2022-11-28T21:07:07.749Z,15.80
2022-11-28T21:09:35.807Z,14.70
2022-11-28T21:12:04.102Z,14.20
2022-11-28T21:14:32.264Z,14.90
2022-11-28T21:17:01.425Z,14.40
2022-11-28T21:19:29.992Z,14.10
2022-11-28T21:21:58.167Z,11.20
2022-11-28T21:24:26.344Z,12.40
2022-11-28T21:26:56.991Z,12.10
2022-11-28T21:29:25.162Z,12.30
2022-11-28T21:31:54.119Z,11.60
2022-11-28T21:34:22.906Z,11.30
2022-11-28T21:36:51.319Z,12.70
2022-11-28T21:39:22.159Z,12.10
2022-11-28T21:41:51.198Z,11.10
2022-11-28T21:44:20.461Z,10.40
2022-11-28T21:46:50.252Z,10.30
2022-11-28T21:49:18.699Z,12.40
2022-11-28T21:51:46.878Z,14.20
2022-11-28T21:54:15.606Z,16.90
2022-11-28T21:56:46.112Z,18.50
2022-11-28T21:59:14.397Z,17.20
2022-11-28T22:01:42.618Z,18.00
2022-11-28T22:04:11.134Z,18.40
2022-11-28T22:06:40.004Z,20.10
2022-11-28T22:09:09.962Z,22.80
2022-11-28T22:11:41.525Z,21.40
2022-11-28T22:16:39.343Z,21.70
2022-11-28T22:19:07.548Z,22.60
2022-11-28T22:21:53.928Z,21.10
2022-11-28T22:24:24.143Z,20.50
2022-11-28T22:26:53.026Z,23.10
2022-11-28T22:29:20.997Z,22.30
2022-11-28T22:31:50.237Z,22.00
2022-11-28T22:34:19.519Z,19.10
2022-11-28T22:36:47.627Z,22.00
2022-11-28T22:39:15.712Z,18.80
2022-11-28T22:41:43.859Z,20.20
2022-11-28T22:44:12.166Z,19.60
2022-11-28T22:46:41.056Z,19.70
2022-11-28T22:49:11.516Z,20.20
2022-11-28T22:51:40.276Z,22.30
2022-11-28T22:54:12.370Z,20.40
2022-11-28T22:56:42.008Z,21.80
2022-11-28T22:59:13.077Z,21.50
2022-11-28T23:01:43.705Z,20.00
2022-11-28T23:04:13.214Z,20.30
2022-11-28T23:06:41.210Z,20.60
2022-11-28T23:09:13.261Z,19.20
2022-11-28T23:11:42.171Z,19.30
2022-11-28T23:14:15.208Z,18.80
2022-11-28T23:16:45.154Z,19.40
2022-11-28T23:19:17.060Z,20.20
2022-11-28T23:21:48.473Z,21.10
2022-11-28T23:24:19.670Z,20.00
2022-11-28T23:26:49.472Z,19.80
2022-11-28T23:31:47.836Z,18.40
2022-11-28T23:34:16.435Z,15.20
2022-11-28T23:36:46.769Z,16.80
2022-11-28T23:39:20.169Z,16.20
2022-11-28T23:41:52.646Z,16.10
2022-11-28T23:44:20.938Z,13.80
2022-11-28T23:46:48.977Z,13.40
2022-11-28T23:49:17.544Z,13.20
2022-11-28T23:51:45.924Z,13.50
2022-11-28T23:54:14.438Z,13.60
2022-11-28T23:56:43.315Z,12.40
2022-11-28T23:59:12.851Z,12.60
